createdAt,value
2019-03-04T00:01:56.378Z,99130.81
2019-03-04T00:04:23.097Z,99128.83
2019-03-04T00:06:49.877Z,99129.42
2019-03-04T00:09:16.603Z,99126.14
2019-03-04T00:11:43.374Z,99120.59
2019-03-04T00:14:10.088Z,99121.22
2019-03-04T00:16:36.825Z,99108.73
2019-03-04T00:19:03.570Z,99109.82
2019-03-04T00:21:30.306Z,99112.73
2019-03-04T00:23:57.037Z,99108.73
2019-03-04T00:26:23.762Z,99101.91
2019-03-04T00:28:50.473Z,99099.27
2019-03-04T00:31:17.245Z,99095.52
2019-03-04T00:33:43.966Z,99090.03
2019-03-04T00:36:10.682Z,99083.86
2019-03-04T00:38:37.427Z,99074.13
2019-03-04T00:41:04.158Z,99076.86
2019-03-04T00:43:30.874Z,99079.73
2019-03-04T00:45:57.613Z,99072.25
2019-03-04T00:48:24.325Z,99066.98
2019-03-04T00:50:51.057Z,99074.80
2019-03-04T00:53:17.769Z,99074.56
2019-03-04T00:55:44.518Z,99073.41
2019-03-04T00:58:11.237Z,99077.67
2019-03-04T01:00:37.986Z,99078.21
2019-03-04T01:03:04.766Z,99091.46
2019-03-04T01:05:31.512Z,99083.56
2019-03-04T01:07:58.231Z,99073.94
2019-03-04T01:10:25.029Z,99072.00
2019-03-04T01:12:51.961Z,99075.70
2019-03-04T01:15:18.697Z,99065.89
2019-03-04T01:17:45.413Z,99064.77
2019-03-04T01:20:13.273Z,99046.34
2019-03-04T01:22:39.981Z,99080.03
2019-03-04T01:25:08.377Z,99065.95
2019-03-04T01:27:35.250Z,99074.19
2019-03-04T01:30:02.005Z,99072.86
2019-03-04T01:32:28.719Z,99047.16
2019-03-04T01:34:55.455Z,99028.05
2019-03-04T01:37:22.201Z,99029.09
2019-03-04T01:39:48.918Z,99029.52
2019-03-04T01:42:15.696Z,99019.51
2019-03-04T01:44:43.147Z,99025.75
2019-03-04T01:47:09.986Z,99022.20
2019-03-04T01:49:36.703Z,99013.94
2019-03-04T01:52:03.435Z,99007.31
2019-03-04T01:54:30.231Z,98999.00
2019-03-04T01:56:56.985Z,99013.02
2019-03-04T01:59:23.686Z,99005.69
2019-03-04T02:01:50.434Z,99006.02
2019-03-04T02:04:17.156Z,99013.38
2019-03-04T02:06:43.886Z,99012.32
2019-03-04T02:09:10.802Z,99009.16
2019-03-04T02:11:37.534Z,99005.09
2019-03-04T02:14:04.250Z,98996.66
2019-03-04T02:16:30.982Z,98984.20
2019-03-04T02:18:57.702Z,98985.69
2019-03-04T02:21:24.454Z,98979.42
2019-03-04T02:23:51.181Z,98962.94
2019-03-04T02:26:23.953Z,98944.65
2019-03-04T02:28:50.685Z,98893.05
2019-03-04T02:31:17.425Z,98910.97
2019-03-04T02:33:44.137Z,98916.33
2019-03-04T02:36:10.874Z,98922.38
2019-03-04T02:38:37.591Z,98925.16
2019-03-04T02:41:04.330Z,98927.13
2019-03-04T02:43:31.046Z,98914.00
2019-03-04T02:45:57.790Z,98900.11
2019-03-04T02:48:24.517Z,98876.09
2019-03-04T02:50:51.241Z,98860.36
2019-03-04T02:53:17.951Z,98857.20
2019-03-04T02:55:44.679Z,98825.98
2019-03-04T02:58:11.414Z,98813.92
2019-03-04T03:00:38.125Z,98791.83
2019-03-04T03:03:04.868Z,98772.66
2019-03-04T03:05:31.579Z,98763.04
2019-03-04T03:07:58.386Z,98759.14
2019-03-04T03:10:25.106Z,98762.34
2019-03-04T03:12:51.828Z,98766.98
2019-03-04T03:15:18.542Z,98804.22
2019-03-04T03:17:45.276Z,98802.83
2019-03-04T03:20:12.037Z,98776.99
2019-03-04T03:22:38.935Z,98764.12
2019-03-04T03:25:06.258Z,98762.68
2019-03-04T03:27:32.991Z,98762.55
2019-03-04T03:29:59.712Z,98736.76
2019-03-04T03:32:26.462Z,98710.63
2019-03-04T03:34:53.179Z,98717.88
2019-03-04T03:37:19.906Z,98718.27
2019-03-04T03:39:46.620Z,98737.16
2019-03-04T03:42:13.344Z,98740.84
2019-03-04T03:44:40.071Z,98731.44
2019-03-04T03:47:06.800Z,98725.17
2019-03-04T03:49:33.519Z,98736.35
2019-03-04T03:52:02.019Z,98724.62
2019-03-04T03:54:28.755Z,98714.78
2019-03-04T03:56:55.505Z,98709.14
2019-03-04T03:59:22.212Z,98706.11
2019-03-04T04:01:48.951Z,98706.93
2019-03-04T04:04:15.658Z,98701.45
2019-03-04T04:06:42.463Z,98711.33
2019-03-04T04:09:09.187Z,98714.92
2019-03-04T04:11:35.895Z,98728.91
2019-03-04T04:14:02.722Z,98727.19
2019-03-04T04:16:29.445Z,98721.35
2019-03-04T04:18:56.211Z,98722.96
2019-03-04T04:21:22.922Z,98702.01
2019-03-04T04:23:49.654Z,98668.52
2019-03-04T04:26:20.734Z,98667.08
2019-03-04T04:28:48.693Z,98644.67
2019-03-04T04:31:15.407Z,98645.22
2019-03-04T04:33:42.158Z,98665.04
2019-03-04T04:36:08.878Z,98654.37
2019-03-04T04:38:35.610Z,98658.81
2019-03-04T04:41:02.330Z,98663.14
2019-03-04T04:43:29.065Z,98664.04
2019-03-04T04:45:55.774Z,98655.34
2019-03-04T04:48:22.515Z,98645.16
2019-03-04T04:50:49.233Z,98621.08
2019-03-04T04:53:15.971Z,98614.75
2019-03-04T04:55:42.741Z,98598.16
2019-03-04T04:58:09.482Z,98603.91
2019-03-04T05:00:36.192Z,98586.81
2019-03-04T05:03:02.950Z,98585.89
2019-03-04T05:05:29.662Z,98580.58
2019-03-04T05:07:56.489Z,98565.28
2019-03-04T05:10:23.230Z,98556.47
2019-03-04T05:12:49.998Z,98538.16
2019-03-04T05:15:16.714Z,98549.63
2019-03-04T05:17:43.446Z,98542.87
2019-03-04T05:20:13.322Z,98559.66
2019-03-04T05:22:40.062Z,98553.92
2019-03-04T05:25:07.006Z,98560.87
2019-03-04T05:27:33.722Z,98540.42
2019-03-04T05:30:00.464Z,98531.44
2019-03-04T05:32:27.188Z,98526.88
2019-03-04T05:34:53.906Z,98531.63
2019-03-04T05:37:20.618Z,98547.16
2019-03-04T05:39:47.361Z,98548.14
2019-03-04T05:42:14.073Z,98532.58
2019-03-04T05:44:40.815Z,98509.66
2019-03-04T05:47:07.534Z,98523.42
2019-03-04T05:49:34.271Z,98514.95
2019-03-04T05:52:01.007Z,98504.35
2019-03-04T05:54:27.749Z,98481.41
2019-03-04T05:56:54.466Z,98474.13
2019-03-04T05:59:21.333Z,98470.56
2019-03-04T06:01:57.017Z,98472.52
2019-03-04T06:04:23.748Z,98475.69
2019-03-04T06:06:53.362Z,98467.13
2019-03-04T06:09:20.102Z,98470.09
2019-03-04T06:11:46.829Z,98480.98
2019-03-04T06:14:13.558Z,98489.02
2019-03-04T06:16:47.043Z,98506.63
2019-03-04T06:19:07.122Z,98508.53
2019-03-04T06:21:33.850Z,98512.35
2019-03-04T06:24:00.581Z,98523.20
2019-03-04T06:26:27.303Z,98517.21
2019-03-04T06:28:54.082Z,98532.78
2019-03-04T06:31:20.802Z,98530.84
2019-03-04T06:33:47.538Z,98536.08
2019-03-04T06:36:14.253Z,98550.25
2019-03-04T06:38:40.970Z,98555.38
2019-03-04T06:41:07.694Z,98572.45
2019-03-04T06:43:34.542Z,98575.77
2019-03-04T06:46:01.254Z,98597.34
2019-03-04T06:48:28.007Z,98620.06
2019-03-04T06:50:54.762Z,98627.97
2019-03-04T06:53:28.618Z,98600.55
2019-03-04T06:56:03.923Z,98611.30
2019-03-04T06:58:31.205Z,98607.78
2019-03-04T07:01:02.765Z,98585.69
2019-03-04T07:03:32.302Z,98567.03
2019-03-04T07:05:59.371Z,98571.74
2019-03-04T07:09:07.763Z,98562.92
2019-03-04T07:11:34.467Z,98572.14
2019-03-04T07:14:01.237Z,98553.66
2019-03-04T07:16:27.952Z,98548.55
2019-03-04T07:18:54.842Z,98558.19
2019-03-04T07:21:21.670Z,98581.37
2019-03-04T07:23:48.397Z,98592.60
2019-03-04T07:26:15.119Z,98586.56
2019-03-04T07:28:41.893Z,98610.03
2019-03-04T07:31:08.618Z,98567.77
2019-03-04T07:33:35.346Z,98556.64
2019-03-04T07:36:02.058Z,98562.66
2019-03-04T07:38:50.119Z,98575.00
2019-03-04T07:41:16.839Z,98557.42
2019-03-04T07:43:43.666Z,98543.08
2019-03-04T07:46:10.383Z,98559.13
2019-03-04T07:48:37.093Z,98519.52
2019-03-04T07:51:10.062Z,98514.00
2019-03-04T07:53:46.102Z,98512.50
2019-03-04T07:56:03.578Z,98508.59
2019-03-04T07:58:30.422Z,98496.46
2019-03-04T08:00:57.250Z,98521.83
2019-03-04T08:03:24.022Z,98520.52
2019-03-04T08:05:50.755Z,98514.50
2019-03-04T08:08:17.465Z,98544.08
2019-03-04T08:10:55.672Z,98517.81
2019-03-04T08:13:29.595Z,98528.94
2019-03-04T08:15:57.423Z,98556.91
2019-03-04T08:18:24.161Z,98566.50
2019-03-04T08:20:50.894Z,98553.47
2019-03-04T08:23:17.627Z,98557.88
2019-03-04T08:25:44.342Z,98609.72
2019-03-04T08:28:12.739Z,98598.28
2019-03-04T08:30:39.467Z,98574.31
2019-03-04T08:33:06.191Z,98579.64
2019-03-04T08:35:32.910Z,98572.02
2019-03-04T08:37:59.641Z,98594.96
2019-03-04T08:40:26.373Z,98607.45
2019-03-04T08:42:53.112Z,98618.16
2019-03-04T08:45:19.821Z,98630.10
2019-03-04T08:47:46.598Z,98624.38
2019-03-04T08:50:13.558Z,98648.62
2019-03-04T08:52:40.314Z,98648.09
2019-03-04T08:55:08.140Z,98622.58
2019-03-04T08:57:35.454Z,98663.94
2019-03-04T09:00:02.214Z,98666.89
2019-03-04T09:02:28.994Z,98702.02
2019-03-04T09:04:55.831Z,98675.36
2019-03-04T09:07:22.550Z,98656.12
2019-03-04T09:09:49.278Z,98662.12
2019-03-04T09:12:16.043Z,98662.17
2019-03-04T09:14:42.842Z,98663.67
2019-03-04T09:17:10.697Z,98676.97
2019-03-04T09:19:36.378Z,98667.62
2019-03-04T09:22:03.093Z,98650.06
2019-03-04T09:24:29.862Z,98671.63
2019-03-04T09:26:56.582Z,98668.92
2019-03-04T09:29:23.380Z,98651.17
2019-03-04T09:31:50.099Z,98672.67
2019-03-04T09:34:16.834Z,98684.06
2019-03-04T09:36:43.559Z,98676.55
2019-03-04T09:39:11.810Z,98685.00
2019-03-04T09:41:38.527Z,98665.95
2019-03-04T09:44:05.278Z,98665.62
2019-03-04T09:46:31.996Z,98656.89
2019-03-04T09:48:58.724Z,98647.37
2019-03-04T09:51:25.439Z,98655.92
2019-03-04T09:53:52.194Z,98678.78
2019-03-04T09:56:18.914Z,98667.77
2019-03-04T09:58:45.650Z,98640.52
2019-03-04T10:01:17.990Z,98640.53
2019-03-04T10:04:11.166Z,98639.73
2019-03-04T10:06:46.158Z,98649.52
2019-03-04T10:09:53.170Z,98633.06
2019-03-04T10:12:31.107Z,98617.59
2019-03-04T10:15:23.058Z,98669.17
2019-03-04T10:18:01.670Z,98635.41
2019-03-04T10:20:41.379Z,98644.23
2019-03-04T10:23:31.744Z,98638.09
2019-03-04T10:26:22.656Z,98652.42
2019-03-04T10:28:58.633Z,98657.58
2019-03-04T10:31:55.509Z,98683.00
2019-03-04T10:34:34.103Z,98650.52
2019-03-04T10:37:19.970Z,98669.02
2019-03-04T10:40:25.941Z,98656.13
2019-03-04T10:43:07.221Z,98660.19
2019-03-04T10:45:44.005Z,98670.56
2019-03-04T10:48:10.713Z,98648.87
2019-03-04T10:50:37.453Z,98659.44
2019-03-04T10:53:04.166Z,98679.04
2019-03-04T10:55:41.212Z,98686.18
2019-03-04T10:57:57.726Z,98679.42
2019-03-04T11:00:24.457Z,98673.77
2019-03-04T11:02:51.178Z,98685.47
2019-03-04T11:05:17.913Z,98682.81
2019-03-04T11:07:44.633Z,98670.78
2019-03-04T11:10:11.478Z,98669.20
2019-03-04T11:12:38.191Z,98657.12
2019-03-04T11:15:11.590Z,98648.05
2019-03-04T11:17:38.307Z,98634.36
2019-03-04T11:20:05.730Z,98634.78
2019-03-04T11:22:32.453Z,98627.93
2019-03-04T11:24:59.182Z,98638.13
2019-03-04T11:27:25.906Z,98633.23
2019-03-04T11:29:52.638Z,98630.13
2019-03-04T11:32:19.361Z,98619.72
2019-03-04T11:34:46.106Z,98645.45
2019-03-04T11:37:12.830Z,98638.77
2019-03-04T11:39:45.647Z,98629.35
2019-03-04T11:42:12.387Z,98634.31
2019-03-04T11:44:39.122Z,98654.98
2019-03-04T11:47:05.943Z,98630.77
2019-03-04T11:49:32.654Z,98625.09
2019-03-04T11:51:59.379Z,98613.64
2019-03-04T11:54:26.093Z,98605.28
2019-03-04T11:56:52.819Z,98593.95
2019-03-04T11:59:19.537Z,98587.05
2019-03-04T12:01:48.292Z,98574.97
2019-03-04T12:04:14.999Z,98583.79
2019-03-04T12:06:43.195Z,98577.09
2019-03-04T12:09:13.478Z,98581.44
2019-03-04T12:11:40.217Z,98564.10
2019-03-04T12:14:07.002Z,98567.01
2019-03-04T12:16:33.730Z,98545.61
2019-03-04T12:19:00.517Z,98536.21
2019-03-04T12:21:27.265Z,98532.78
2019-03-04T12:23:54.005Z,98513.66
2019-03-04T12:26:20.838Z,98505.23
2019-03-04T12:28:47.518Z,98493.22
2019-03-04T12:31:14.251Z,98489.00
2019-03-04T12:33:40.966Z,98485.69
2019-03-04T12:36:07.704Z,98490.42
2019-03-04T12:38:34.439Z,98496.16
2019-03-04T12:41:01.178Z,98481.81
2019-03-04T12:43:27.901Z,98477.69
2019-03-04T12:45:54.646Z,98467.44
2019-03-04T12:48:21.358Z,98480.16
2019-03-04T12:50:48.085Z,98463.58
2019-03-04T12:53:14.810Z,98449.00
2019-03-04T12:55:41.573Z,98467.02
2019-03-04T12:58:08.289Z,98438.91
2019-03-04T13:00:35.124Z,98463.41
2019-03-04T13:03:01.928Z,98461.14
2019-03-04T13:05:28.698Z,98462.22
2019-03-04T13:07:55.431Z,98461.59
2019-03-04T13:10:22.249Z,98494.77
2019-03-04T13:12:48.983Z,98535.59
2019-03-04T13:15:18.121Z,98509.03
2019-03-04T13:17:44.850Z,98507.26
2019-03-04T13:20:12.265Z,98555.58
2019-03-04T13:22:39.002Z,98528.67
2019-03-04T13:25:05.815Z,98556.48
2019-03-04T13:27:32.550Z,98553.98
2019-03-04T13:29:59.358Z,98551.38
2019-03-04T13:32:26.092Z,98536.39
2019-03-04T13:34:52.809Z,98516.75
2019-03-04T13:37:19.541Z,98532.61
2019-03-04T13:39:46.379Z,98522.48
2019-03-04T13:42:13.059Z,98512.41
2019-03-04T13:44:39.782Z,98497.56
2019-03-04T13:47:06.564Z,98495.14
2019-03-04T13:49:33.282Z,98514.40
2019-03-04T13:52:00.022Z,98485.50
2019-03-04T13:54:26.741Z,98470.50
2019-03-04T13:56:53.478Z,98492.26
2019-03-04T13:59:20.199Z,98497.59
2019-03-04T14:01:46.950Z,98521.87
2019-03-04T14:04:13.669Z,98531.09
2019-03-04T14:06:40.406Z,98533.09
2019-03-04T14:09:07.126Z,98519.04
2019-03-04T14:11:33.873Z,98557.62
2019-03-04T14:14:02.057Z,98504.98
2019-03-04T14:16:27.354Z,98512.52
2019-03-04T14:18:54.086Z,98525.18
2019-03-04T14:21:20.830Z,98511.81
2019-03-04T14:23:47.554Z,98488.00
2019-03-04T14:26:14.286Z,98481.61
2019-03-04T14:28:41.030Z,98489.04
2019-03-04T14:31:07.790Z,98535.09
2019-03-04T14:33:34.538Z,98577.37
2019-03-04T14:36:01.294Z,98637.79
2019-03-04T14:38:28.047Z,98684.26
2019-03-04T14:40:54.765Z,98703.50
2019-03-04T14:43:21.574Z,98717.27
2019-03-04T14:45:48.318Z,98785.66
2019-03-04T14:48:15.062Z,98742.90
2019-03-04T14:50:41.790Z,98725.59
2019-03-04T14:53:08.566Z,98745.07
2019-03-04T14:55:35.311Z,98788.36
2019-03-04T14:58:02.256Z,98758.95
2019-03-04T15:00:30.951Z,98728.05
2019-03-04T15:02:57.746Z,98736.06
2019-03-04T15:05:24.493Z,98718.30
2019-03-04T15:07:51.266Z,98719.46
2019-03-04T15:10:18.006Z,98754.09
2019-03-04T15:12:44.989Z,98751.17
2019-03-04T15:15:12.616Z,98749.44
2019-03-04T15:17:39.399Z,98749.21
2019-03-04T15:20:09.568Z,98757.94
2019-03-04T15:22:35.486Z,98765.14
2019-03-04T15:25:01.664Z,98776.19
2019-03-04T15:27:28.390Z,98791.02
2019-03-04T15:29:55.171Z,98780.19
2019-03-04T15:32:22.704Z,98779.98
2019-03-04T15:34:48.929Z,98783.31
2019-03-04T15:37:16.274Z,98795.05
2019-03-04T15:39:42.459Z,98798.24
2019-03-04T15:42:09.197Z,98810.86
2019-03-04T15:44:35.982Z,98828.08
2019-03-04T15:47:02.713Z,98837.64
2019-03-04T15:49:29.462Z,98857.72
2019-03-04T15:51:56.230Z,98871.25
2019-03-04T15:54:23.073Z,98883.92
2019-03-04T15:56:49.806Z,98901.63
2019-03-04T15:59:16.583Z,98897.41
2019-03-04T16:01:43.298Z,98906.50
2019-03-04T16:04:10.131Z,98910.05
2019-03-04T16:06:36.862Z,98912.32
2019-03-04T16:09:06.878Z,98922.22
2019-03-04T16:11:33.594Z,98930.14
2019-03-04T16:14:00.354Z,98928.88
2019-03-04T16:16:27.083Z,98928.05
2019-03-04T16:18:53.851Z,98939.87
2019-03-04T16:21:20.578Z,98950.90
2019-03-04T16:23:47.433Z,98935.35
2019-03-04T16:26:14.169Z,98951.88
2019-03-04T16:28:41.450Z,98952.04
2019-03-04T16:31:08.174Z,98966.14
2019-03-04T16:33:35.006Z,98979.90
2019-03-04T16:36:01.734Z,98988.15
2019-03-04T16:38:28.474Z,98989.28
2019-03-04T16:40:55.194Z,99009.85
2019-03-04T16:43:21.936Z,99016.33
2019-03-04T16:45:48.663Z,99024.73
2019-03-04T16:48:15.398Z,99033.31
2019-03-04T16:50:42.170Z,99036.53
2019-03-04T16:53:09.960Z,99047.19
2019-03-04T16:55:36.731Z,99055.73
2019-03-04T16:58:03.542Z,99061.23
2019-03-04T17:00:30.298Z,99094.52
2019-03-04T17:02:57.022Z,99087.39
2019-03-04T17:05:23.810Z,99108.70
2019-03-04T17:07:51.023Z,99104.81
2019-03-04T17:10:17.386Z,99120.93
2019-03-04T17:12:44.114Z,99116.39
2019-03-04T17:15:12.746Z,99121.62
2019-03-04T17:17:39.486Z,99135.79
2019-03-04T17:20:07.757Z,99138.36
2019-03-04T17:22:34.515Z,99156.72
2019-03-04T17:25:01.276Z,99158.98
2019-03-04T17:27:27.999Z,99156.02
2019-03-04T17:29:54.761Z,99156.32
2019-03-04T17:32:21.506Z,99170.53
2019-03-04T17:34:48.342Z,99174.00
2019-03-04T17:37:15.067Z,99183.05
2019-03-04T17:39:41.817Z,99173.37
2019-03-04T17:42:08.542Z,99184.11
2019-03-04T17:44:35.308Z,99168.52
2019-03-04T17:47:02.052Z,99177.06
2019-03-04T17:49:28.817Z,99176.84
2019-03-04T17:51:55.548Z,99187.59
2019-03-04T17:54:22.299Z,99192.37
2019-03-04T17:56:49.114Z,99194.31
2019-03-04T17:59:15.937Z,99202.80
2019-03-04T18:01:42.669Z,99222.56
2019-03-04T18:04:09.434Z,99223.32
2019-03-04T18:06:36.236Z,99226.82
2019-03-04T18:09:03.695Z,99239.06
2019-03-04T18:11:30.421Z,99241.48
2019-03-04T18:13:57.161Z,99247.92
2019-03-04T18:16:23.898Z,99254.16
2019-03-04T18:18:50.613Z,99255.16
2019-03-04T18:21:17.350Z,99265.58
2019-03-04T18:23:44.079Z,99266.67
2019-03-04T18:26:16.703Z,99265.42
2019-03-04T18:29:01.573Z,99267.78
2019-03-04T18:31:40.491Z,99268.64
2019-03-04T18:34:42.591Z,99268.80
2019-03-04T18:37:34.246Z,99277.53
2019-03-04T18:40:13.509Z,99275.81
2019-03-04T18:42:52.865Z,99274.80
2019-03-04T18:45:51.235Z,99283.60
2019-03-04T18:48:34.862Z,99286.19
2019-03-04T18:51:01.614Z,99285.70
2019-03-04T18:53:28.337Z,99290.96
2019-03-04T18:55:55.102Z,99287.17
2019-03-04T18:58:21.846Z,99295.06
2019-03-04T19:00:48.586Z,99289.04
2019-03-04T19:03:15.333Z,99287.12
2019-03-04T19:05:42.090Z,99287.88
2019-03-04T19:08:09.116Z,99281.44
2019-03-04T19:10:35.842Z,99284.42
2019-03-04T19:13:02.563Z,99289.20
2019-03-04T19:15:29.295Z,99296.15
2019-03-04T19:17:56.027Z,99299.89
2019-03-04T19:20:22.837Z,99300.51
2019-03-04T19:22:49.573Z,99294.52
2019-03-04T19:25:16.310Z,99291.87
2019-03-04T19:27:43.045Z,99300.27
2019-03-04T19:30:09.830Z,99301.16
2019-03-04T19:32:36.709Z,99297.34
2019-03-04T19:35:03.997Z,99301.73
2019-03-04T19:37:30.726Z,99301.89
2019-03-04T19:39:57.518Z,99302.02
2019-03-04T19:42:25.032Z,99310.27
2019-03-04T19:44:52.100Z,99315.04
2019-03-04T19:47:18.831Z,99316.41
2019-03-04T19:49:45.638Z,99311.91
2019-03-04T19:52:12.382Z,99305.88
2019-03-04T19:54:39.138Z,99319.11
2019-03-04T19:57:05.890Z,99312.46
2019-03-04T19:59:32.695Z,99318.38
2019-03-04T20:01:59.454Z,99320.33
2019-03-04T20:04:26.170Z,99319.33
2019-03-04T20:06:52.906Z,99320.73
2019-03-04T20:09:19.700Z,99321.55
2019-03-04T20:11:46.441Z,99319.40
2019-03-04T20:14:13.158Z,99321.21
2019-03-04T20:16:39.905Z,99330.33
2019-03-04T20:19:06.636Z,99335.95
2019-03-04T20:21:33.380Z,99343.22
2019-03-04T20:24:00.113Z,99342.78
2019-03-04T20:26:26.870Z,99354.38
2019-03-04T20:28:53.605Z,99357.39
2019-03-04T20:31:20.614Z,99361.75
2019-03-04T20:33:47.326Z,99366.04
2019-03-04T20:36:14.065Z,99363.72
2019-03-04T20:38:43.609Z,99374.50
2019-03-04T20:41:10.566Z,99379.44
2019-03-04T20:43:37.289Z,99380.67
2019-03-04T20:46:04.253Z,99389.01
2019-03-04T20:48:30.993Z,99388.44
2019-03-04T20:50:57.742Z,99388.20
2019-03-04T20:53:24.473Z,99392.48
2019-03-04T20:55:51.203Z,99393.58
2019-03-04T20:58:17.939Z,99401.15
2019-03-04T21:00:44.682Z,99393.88
2019-03-04T21:03:11.446Z,99396.38
2019-03-04T21:05:38.184Z,99399.69
2019-03-04T21:08:05.038Z,99398.95
2019-03-04T21:10:31.766Z,99401.64
2019-03-04T21:12:59.894Z,99407.23
2019-03-04T21:15:26.606Z,99400.78
2019-03-04T21:17:53.333Z,99413.36
2019-03-04T21:20:20.074Z,99405.32
2019-03-04T21:22:46.814Z,99417.89
2019-03-04T21:25:40.844Z,99416.70
2019-03-04T21:28:11.829Z,99427.17
2019-03-04T21:31:04.973Z,99432.20
2019-03-04T21:33:47.041Z,99436.84
2019-03-04T21:36:29.811Z,99445.78
2019-03-04T21:38:57.402Z,99442.33
2019-03-04T21:41:32.421Z,99444.91
2019-03-04T21:44:15.046Z,99429.70
2019-03-04T21:46:53.365Z,99434.80
2019-03-04T21:49:20.089Z,99428.69
2019-03-04T21:52:19.462Z,99441.59
2019-03-04T21:54:35.534Z,99444.72
2019-03-04T21:57:24.847Z,99438.85
2019-03-04T21:59:51.568Z,99438.23
2019-03-04T22:02:24.432Z,99446.66
2019-03-04T22:04:51.191Z,99445.78
2019-03-04T22:07:17.928Z,99444.83
2019-03-04T22:09:44.663Z,99447.41
2019-03-04T22:12:12.107Z,99456.64
2019-03-04T22:14:39.207Z,99455.94
2019-03-04T22:17:05.922Z,99456.89
2019-03-04T22:19:32.663Z,99460.52
2019-03-04T22:21:59.381Z,99474.63
2019-03-04T22:24:26.124Z,99474.87
2019-03-04T22:26:52.856Z,99494.88
2019-03-04T22:29:19.605Z,99487.89
2019-03-04T22:31:46.323Z,99488.18
2019-03-04T22:34:13.095Z,99489.05
2019-03-04T22:36:39.788Z,99504.97
2019-03-04T22:39:06.613Z,99498.70
2019-03-04T22:41:33.320Z,99492.05
2019-03-04T22:44:00.061Z,99497.22
2019-03-04T22:46:26.782Z,99487.89
2019-03-04T22:48:53.522Z,99488.42
2019-03-04T22:51:20.250Z,99505.84
2019-03-04T22:53:46.991Z,99501.62
2019-03-04T22:56:13.731Z,99507.27
2019-03-04T22:58:40.449Z,99511.69
2019-03-04T23:01:26.808Z,99507.55
2019-03-04T23:03:57.940Z,99513.15
2019-03-04T23:06:25.950Z,99524.56
2019-03-04T23:08:52.686Z,99528.97
2019-03-04T23:11:21.875Z,99528.83
2019-03-04T23:13:55.816Z,99526.38
2019-03-04T23:16:25.137Z,99530.33
2019-03-04T23:18:51.870Z,99524.07
2019-03-04T23:21:18.584Z,99516.88
2019-03-04T23:23:45.352Z,99531.14
2019-03-04T23:26:12.069Z,99523.14
2019-03-04T23:28:38.826Z,99530.75
2019-03-04T23:31:05.550Z,99521.57
2019-03-04T23:33:32.332Z,99520.78
2019-03-04T23:35:59.050Z,99524.83
2019-03-04T23:38:25.769Z,99525.56
2019-03-04T23:40:52.498Z,99518.66
2019-03-04T23:43:19.214Z,99519.52
2019-03-04T23:45:45.958Z,99512.92
2019-03-04T23:48:12.681Z,99505.02
2019-03-04T23:50:39.422Z,99508.38
2019-03-04T23:53:06.135Z,99496.70
2019-03-04T23:55:32.883Z,99510.39
2019-03-04T23:57:59.606Z,99511.55
